createdAt,value
2022-11-23T00:01:13.636Z,4.50
2022-11-23T00:03:43.331Z,7.20
2022-11-23T00:06:11.445Z,5.40
2022-11-23T00:08:40.244Z,6.37
2022-11-23T00:11:08.522Z,10.47
2022-11-23T00:13:36.930Z,9.17
2022-11-23T00:16:07.033Z,7.90
2022-11-23T00:18:35.381Z,6.23
2022-11-23T00:21:09.237Z,13.17
2022-11-23T00:23:37.943Z,8.27
2022-11-23T00:26:06.818Z,8.23
2022-11-23T00:28:38.981Z,8.07
2022-11-23T00:31:07.555Z,9.33
2022-11-23T00:33:36.058Z,7.13
2022-11-23T00:36:05.649Z,5.47
2022-11-23T00:38:35.446Z,4.90
2022-11-23T00:41:06.373Z,5.47
2022-11-23T00:43:35.194Z,6.03
2022-11-23T00:46:08.654Z,4.50
2022-11-23T00:48:36.754Z,8.27
2022-11-23T00:51:05.232Z,7.93
2022-11-23T00:53:34.299Z,5.63
2022-11-23T00:56:02.554Z,9.97
2022-11-23T00:58:31.022Z,5.07
2022-11-23T01:01:03.079Z,4.77
2022-11-23T01:03:32.317Z,9.47
2022-11-23T01:06:04.427Z,7.20
2022-11-23T01:08:34.628Z,9.07
2022-11-23T01:11:03.396Z,7.17
2022-11-23T01:13:32.134Z,7.10
2022-11-23T01:16:00.168Z,6.90
2022-11-23T01:18:28.029Z,7.37
2022-11-23T01:20:56.242Z,7.90
2022-11-23T01:23:23.865Z,8.63
2022-11-23T01:25:56.821Z,8.03
2022-11-23T01:28:25.680Z,4.57
2022-11-23T01:30:53.981Z,5.67
2022-11-23T01:33:22.309Z,9.63
2022-11-23T01:35:50.623Z,3.90
2022-11-23T01:38:19.247Z,8.07
2022-11-23T01:40:47.198Z,8.60
2022-11-23T01:43:17.975Z,7.67
2022-11-23T01:45:58.576Z,8.13
2022-11-23T01:48:30.998Z,8.70
2022-11-23T01:51:00.706Z,6.90
2022-11-23T01:53:29.582Z,6.97
2022-11-23T01:56:00.480Z,6.70
2022-11-23T01:58:32.221Z,9.00
2022-11-23T02:01:00.331Z,6.77
2022-11-23T02:03:29.483Z,7.87
2022-11-23T02:06:02.267Z,14.73
2022-11-23T02:08:30.792Z,9.90
2022-11-23T02:10:59.720Z,7.33
2022-11-23T02:13:30.465Z,5.53
2022-11-23T02:15:59.994Z,11.67
2022-11-23T02:18:31.133Z,9.20
2022-11-23T02:21:00.101Z,9.03
2022-11-23T02:23:35.174Z,6.17
2022-11-23T02:26:08.157Z,11.83
2022-11-23T02:28:40.288Z,8.77
2022-11-23T02:31:08.647Z,8.63
2022-11-23T02:33:38.812Z,6.47
2022-11-23T02:36:29.558Z,6.53
2022-11-23T02:38:57.687Z,9.67
2022-11-23T02:41:26.631Z,9.10
2022-11-23T02:43:56.215Z,6.57
2022-11-23T02:46:23.857Z,10.57
2022-11-23T02:48:51.416Z,10.23
2022-11-23T02:51:19.015Z,6.37
2022-11-23T02:53:46.543Z,13.90
2022-11-23T02:56:14.240Z,12.30
2022-11-23T02:58:43.144Z,8.23
2022-11-23T03:01:11.041Z,8.20
2022-11-23T03:03:38.588Z,9.73
2022-11-23T03:06:06.329Z,8.70
2022-11-23T03:08:33.893Z,15.30
2022-11-23T03:11:01.940Z,11.60
2022-11-23T03:13:29.583Z,12.07
2022-11-23T03:15:58.475Z,10.20
2022-11-23T03:18:26.637Z,7.60
2022-11-23T03:20:54.235Z,13.83
2022-11-23T03:23:21.796Z,12.53
2022-11-23T03:25:56.396Z,6.80
2022-11-23T03:28:24.144Z,6.77
2022-11-23T03:30:52.401Z,10.20
2022-11-23T03:33:21.822Z,9.33
2022-11-23T03:35:49.419Z,12.17
2022-11-23T03:38:17.187Z,11.87
2022-11-23T03:40:45.544Z,9.93
2022-11-23T03:43:13.228Z,11.30
2022-11-23T03:45:41.080Z,14.57
2022-11-23T03:48:08.820Z,12.00
2022-11-23T03:50:37.765Z,11.13
2022-11-23T03:53:06.093Z,10.87
2022-11-23T03:55:33.803Z,12.13
2022-11-23T03:58:01.806Z,7.30
2022-11-23T04:00:30.048Z,11.97
2022-11-23T04:02:57.853Z,6.30
2022-11-23T04:05:27.767Z,9.63
2022-11-23T04:07:56.737Z,10.97
2022-11-23T04:10:24.345Z,10.63
2022-11-23T04:12:52.873Z,8.00
2022-11-23T04:15:20.932Z,7.20
2022-11-23T04:17:48.717Z,7.40
2022-11-23T04:20:16.425Z,10.97
2022-11-23T04:22:44.019Z,6.37
2022-11-23T04:25:13.131Z,6.00
2022-11-23T04:27:40.688Z,8.87
2022-11-23T04:30:09.840Z,7.40
2022-11-23T04:32:37.381Z,7.43
2022-11-23T04:35:05.561Z,8.23
2022-11-23T04:37:33.116Z,11.50
2022-11-23T04:40:00.736Z,8.80
2022-11-23T04:42:29.673Z,7.70
2022-11-23T04:44:58.321Z,5.73
2022-11-23T04:47:26.205Z,13.50
2022-11-23T04:49:53.777Z,7.27
2022-11-23T04:52:21.328Z,9.60
2022-11-23T04:54:48.913Z,9.50
2022-11-23T04:57:16.478Z,9.67
2022-11-23T04:59:45.364Z,11.30
2022-11-23T05:02:12.872Z,12.43
2022-11-23T05:04:40.460Z,12.57
2022-11-23T05:07:08.130Z,8.53
2022-11-23T05:09:35.777Z,11.30
2022-11-23T05:12:03.369Z,11.30
2022-11-23T05:14:31.767Z,11.10
2022-11-23T05:17:00.686Z,8.20
2022-11-23T05:19:28.307Z,10.77
2022-11-23T05:21:55.884Z,7.60
2022-11-23T05:24:23.450Z,11.27
2022-11-23T05:26:56.065Z,12.03
2022-11-23T05:29:23.991Z,12.30
2022-11-23T05:31:51.535Z,8.53
2022-11-23T05:34:20.454Z,12.43
2022-11-23T05:36:48.049Z,11.53
2022-11-23T05:39:15.596Z,7.03
2022-11-23T05:41:43.189Z,13.93
2022-11-23T05:44:10.959Z,10.70
2022-11-23T05:46:38.517Z,11.53
2022-11-23T05:49:06.151Z,11.27
2022-11-23T05:51:35.100Z,10.80
2022-11-23T05:54:03.050Z,9.70
2022-11-23T05:56:32.076Z,9.33
2022-11-23T05:59:02.331Z,12.90
2022-11-23T06:01:29.998Z,14.90
2022-11-23T06:03:57.688Z,5.00
2022-11-23T06:06:25.374Z,8.97
2022-11-23T06:08:54.312Z,7.70
2022-11-23T06:11:22.715Z,9.10
2022-11-23T06:13:50.576Z,8.73
2022-11-23T06:16:18.162Z,7.03
2022-11-23T06:18:45.715Z,10.97
2022-11-23T06:21:13.333Z,8.80
2022-11-23T06:23:40.942Z,9.53
2022-11-23T06:26:09.920Z,7.53
2022-11-23T06:28:37.524Z,7.53
2022-11-23T06:31:06.589Z,9.40
2022-11-23T06:33:34.215Z,7.17
2022-11-23T06:36:03.470Z,12.63
2022-11-23T06:38:31.277Z,8.50
2022-11-23T06:40:59.759Z,7.80
2022-11-23T06:43:29.145Z,5.67
2022-11-23T06:45:57.164Z,10.40
2022-11-23T06:48:25.200Z,9.30
2022-11-23T06:50:52.814Z,8.60
2022-11-23T06:53:20.425Z,9.67
2022-11-23T06:55:47.999Z,7.97
2022-11-23T06:58:15.610Z,12.80
2022-11-23T07:00:44.565Z,12.90
2022-11-23T07:03:20.355Z,11.53
2022-11-23T07:05:48.018Z,12.67
2022-11-23T07:08:15.763Z,7.87
2022-11-23T07:10:43.442Z,13.33
2022-11-23T07:13:11.973Z,13.33
2022-11-23T07:15:39.756Z,9.23
2022-11-23T07:18:10.287Z,21.27
2022-11-23T07:20:38.774Z,12.47
2022-11-23T07:23:07.887Z,13.27
2022-11-23T07:25:36.738Z,16.93
2022-11-23T07:28:05.993Z,12.73
2022-11-23T07:30:34.751Z,19.07
2022-11-23T07:33:03.383Z,26.70
2022-11-23T07:35:32.737Z,31.37
2022-11-23T07:38:00.755Z,27.97
2022-11-23T07:40:28.348Z,23.33
2022-11-23T07:43:00.714Z,25.17
2022-11-23T07:45:28.356Z,22.43
2022-11-23T07:48:00.186Z,46.20
2022-11-23T07:50:28.117Z,61.93
2022-11-23T07:52:57.098Z,48.97
2022-11-23T07:55:25.060Z,66.50
2022-11-23T07:57:53.455Z,36.97
2022-11-23T08:00:21.887Z,35.40
2022-11-23T08:03:19.466Z,43.67
2022-11-23T08:05:37.333Z,48.20
2022-11-23T08:08:06.530Z,39.90
2022-11-23T08:10:38.767Z,34.57
2022-11-23T08:13:09.599Z,27.23
2022-11-23T08:15:37.362Z,46.50
2022-11-23T08:18:05.578Z,35.10
2022-11-23T08:20:34.479Z,31.87
2022-11-23T08:23:02.110Z,25.00
2022-11-23T08:25:31.322Z,20.70
2022-11-23T08:27:59.721Z,21.93
2022-11-23T08:30:28.549Z,18.93
2022-11-23T08:32:56.325Z,20.63
2022-11-23T08:35:24.297Z,16.50
2022-11-23T08:37:51.884Z,23.23
2022-11-23T08:40:25.065Z,13.70
2022-11-23T08:42:54.817Z,8.60
2022-11-23T08:45:22.515Z,6.83
2022-11-23T08:47:50.863Z,7.93
2022-11-23T08:50:18.966Z,6.80
2022-11-23T08:52:46.554Z,7.40
2022-11-23T08:55:14.358Z,8.50
2022-11-23T08:57:42.028Z,8.77
2022-11-23T09:00:11.979Z,5.80
2022-11-23T09:02:39.613Z,5.47
2022-11-23T09:05:07.688Z,4.97
2022-11-23T09:07:35.385Z,5.57
2022-11-23T09:10:03.122Z,5.23
2022-11-23T09:12:30.679Z,10.40
2022-11-23T09:14:58.336Z,4.23
2022-11-23T09:17:27.346Z,6.63
2022-11-23T09:19:54.963Z,6.63
2022-11-23T09:22:22.568Z,9.67
2022-11-23T09:24:50.194Z,6.63
2022-11-23T09:27:18.085Z,10.17
2022-11-23T09:29:45.737Z,8.60
2022-11-23T09:32:13.343Z,4.73
2022-11-23T09:34:42.366Z,5.10
2022-11-23T09:37:09.962Z,5.77
2022-11-23T09:39:37.558Z,7.30
2022-11-23T09:42:13.408Z,6.10
2022-11-23T09:44:55.382Z,6.00
2022-11-23T09:47:34.540Z,2.60
2022-11-23T09:50:12.164Z,7.80
2022-11-23T09:52:43.141Z,11.43
2022-11-23T09:55:15.899Z,7.97
2022-11-23T09:57:45.237Z,9.77
2022-11-23T10:00:18.673Z,11.10
2022-11-23T10:02:46.274Z,8.53
2022-11-23T10:05:19.171Z,10.23
2022-11-23T10:07:58.225Z,8.63
2022-11-23T10:10:34.804Z,6.67
2022-11-23T10:13:08.653Z,11.07
2022-11-23T10:15:40.433Z,17.00
2022-11-23T10:18:22.756Z,7.50
2022-11-23T10:20:57.145Z,8.07
2022-11-23T10:23:36.339Z,9.07
2022-11-23T10:26:03.892Z,5.77
2022-11-23T10:28:33.240Z,7.17
2022-11-23T10:31:06.111Z,6.50
2022-11-23T10:33:38.958Z,8.40
2022-11-23T10:36:11.041Z,7.43
2022-11-23T10:38:38.668Z,7.17
2022-11-23T10:41:10.086Z,7.23
2022-11-23T10:43:42.985Z,8.53
2022-11-23T10:46:31.900Z,8.40
2022-11-23T10:49:11.791Z,9.30
2022-11-23T10:51:40.763Z,5.87
2022-11-23T10:54:19.604Z,9.03
2022-11-23T10:56:47.989Z,9.13
2022-11-23T10:59:27.862Z,5.37
2022-11-23T11:02:01.960Z,6.43
2022-11-23T11:04:29.827Z,6.57
2022-11-23T11:07:20.177Z,4.23
2022-11-23T11:09:51.326Z,5.47
2022-11-23T11:12:19.312Z,8.00
2022-11-23T11:14:59.372Z,7.40
2022-11-23T11:17:34.702Z,12.30
2022-11-23T11:20:23.415Z,4.50
2022-11-23T11:22:52.457Z,8.03
2022-11-23T11:25:29.843Z,9.53
2022-11-23T11:27:57.919Z,5.20
2022-11-23T11:30:26.537Z,9.00
2022-11-23T11:32:57.656Z,9.50
2022-11-23T11:35:27.699Z,8.77
2022-11-23T11:37:59.046Z,7.73
2022-11-23T11:40:31.031Z,10.90
2022-11-23T11:43:00.559Z,9.83
2022-11-23T11:45:33.134Z,7.70
2022-11-23T11:48:04.575Z,9.83
2022-11-23T11:50:35.072Z,9.70
2022-11-23T11:53:08.217Z,7.83
2022-11-23T11:55:46.787Z,7.13
2022-11-23T11:58:17.149Z,7.07
2022-11-23T12:00:45.417Z,4.60
2022-11-23T12:03:21.190Z,12.87
2022-11-23T12:05:51.218Z,8.03
2022-11-23T12:08:23.501Z,4.03
2022-11-23T12:10:52.546Z,9.57
2022-11-23T12:13:22.236Z,6.57
2022-11-23T12:15:54.210Z,7.23
2022-11-23T12:18:41.439Z,6.83
2022-11-23T12:21:22.051Z,6.50
2022-11-23T12:23:57.778Z,11.03
2022-11-23T12:26:28.247Z,5.23
2022-11-23T12:29:08.487Z,7.63
2022-11-23T12:31:42.139Z,6.10
2022-11-23T12:34:25.392Z,9.40
2022-11-23T12:37:15.477Z,4.63
2022-11-23T12:40:05.206Z,6.70
2022-11-23T12:42:40.508Z,6.57
2022-11-23T12:45:20.129Z,5.97
2022-11-23T12:47:56.383Z,4.70
2022-11-23T12:50:30.395Z,5.30
2022-11-23T12:53:06.222Z,5.07
2022-11-23T12:55:41.875Z,5.40
2022-11-23T12:58:15.610Z,5.73
2022-11-23T13:00:47.133Z,5.77
2022-11-23T13:03:53.305Z,8.57
2022-11-23T13:06:33.347Z,6.10
2022-11-23T13:09:33.727Z,6.43
2022-11-23T13:12:16.223Z,5.33
2022-11-23T13:14:49.751Z,3.47
2022-11-23T13:17:32.264Z,8.53
2022-11-23T13:20:31.895Z,4.33
2022-11-23T13:22:59.695Z,5.07
2022-11-23T13:25:28.969Z,3.87
2022-11-23T13:28:03.161Z,6.70
2022-11-23T13:31:14.047Z,7.73
2022-11-23T13:33:35.773Z,4.37
2022-11-23T13:36:11.220Z,6.17
2022-11-23T13:38:42.552Z,5.37
2022-11-23T13:41:46.788Z,7.20
2022-11-23T13:44:21.119Z,7.70
2022-11-23T13:46:58.320Z,4.80
2022-11-23T13:49:33.924Z,3.90
2022-11-23T13:52:28.509Z,5.27
2022-11-23T13:55:04.036Z,5.70
2022-11-23T13:57:35.194Z,7.73
2022-11-23T14:00:40.406Z,3.93
2022-11-23T14:03:48.873Z,4.33
2022-11-23T14:06:29.854Z,5.87
2022-11-23T14:09:02.822Z,5.80
2022-11-23T14:11:31.007Z,3.73
2022-11-23T14:14:01.873Z,6.60
2022-11-23T14:16:57.398Z,5.47
2022-11-23T14:19:29.443Z,6.77
2022-11-23T14:22:03.557Z,3.40
2022-11-23T14:24:51.471Z,6.93
2022-11-23T14:27:49.183Z,2.83
2022-11-23T14:30:39.894Z,5.70
2022-11-23T14:33:33.111Z,3.40
2022-11-23T14:36:30.475Z,9.17
2022-11-23T14:39:43.889Z,6.77
2022-11-23T14:42:26.454Z,4.80
2022-11-23T14:44:55.268Z,7.23
2022-11-23T14:47:29.935Z,4.13
2022-11-23T14:49:58.054Z,4.00
2022-11-23T14:52:28.423Z,6.67
2022-11-23T14:54:57.716Z,7.50
2022-11-23T14:57:28.745Z,4.33
2022-11-23T14:59:59.423Z,5.03
2022-11-23T15:02:33.812Z,5.97
2022-11-23T15:05:06.467Z,7.33
2022-11-23T15:07:44.977Z,6.80
2022-11-23T15:10:24.795Z,7.03
2022-11-23T15:12:52.478Z,7.93
2022-11-23T15:15:21.910Z,3.97
2022-11-23T15:17:53.602Z,5.20
2022-11-23T15:20:21.765Z,7.77
2022-11-23T15:22:51.028Z,5.50
2022-11-23T15:25:19.781Z,7.40
2022-11-23T15:27:49.099Z,3.70
2022-11-23T15:30:19.289Z,7.60
2022-11-23T15:32:56.387Z,4.30
2022-11-23T15:35:26.077Z,7.43
2022-11-23T15:37:55.885Z,6.60
2022-11-23T15:40:24.708Z,5.73
2022-11-23T15:42:52.563Z,5.97
2022-11-23T15:45:36.956Z,12.77
2022-11-23T15:48:06.100Z,4.20
2022-11-23T15:50:34.377Z,4.90
2022-11-23T15:53:07.548Z,5.30
2022-11-23T15:55:36.056Z,5.60
2022-11-23T15:58:07.669Z,6.60
2022-11-23T16:00:35.625Z,9.40
2022-11-23T16:03:34.453Z,8.47
2022-11-23T16:06:19.740Z,9.27
2022-11-23T16:08:48.734Z,15.03
2022-11-23T16:11:32.458Z,15.60
2022-11-23T16:14:21.134Z,13.27
2022-11-23T16:17:08.888Z,13.30
2022-11-23T16:19:40.209Z,22.73
2022-11-23T16:22:26.742Z,23.40
2022-11-23T16:25:05.144Z,25.77
2022-11-23T16:27:39.373Z,20.63
2022-11-23T16:30:28.125Z,31.90
2022-11-23T16:33:08.482Z,31.27
2022-11-23T16:35:37.363Z,30.00
2022-11-23T16:38:07.142Z,13.77
2022-11-23T16:40:48.257Z,31.07
2022-11-23T16:43:28.919Z,15.70
2022-11-23T16:46:04.551Z,5.77
2022-11-23T16:48:45.175Z,3.87
2022-11-23T16:51:22.582Z,3.60
2022-11-23T16:56:55.685Z,3.67
2022-11-23T16:59:24.129Z,4.00
2022-11-23T17:02:02.587Z,5.63
2022-11-23T17:04:35.238Z,5.50
2022-11-23T17:07:13.431Z,3.73
2022-11-23T17:09:48.513Z,6.50
2022-11-23T17:12:32.684Z,3.00
2022-11-23T17:15:09.394Z,5.93
2022-11-23T17:17:41.480Z,4.83
2022-11-23T17:20:20.248Z,5.87
2022-11-23T17:22:53.578Z,5.90
2022-11-23T17:25:25.798Z,4.43
2022-11-23T17:28:00.530Z,4.03
2022-11-23T17:30:45.474Z,2.90
2022-11-23T17:33:20.021Z,5.83
2022-11-23T17:35:49.606Z,5.33
2022-11-23T17:38:18.415Z,7.07
2022-11-23T17:40:46.070Z,6.17
2022-11-23T17:43:15.959Z,3.70
2022-11-23T17:45:44.089Z,8.60
2022-11-23T17:48:12.850Z,6.03
2022-11-23T17:50:40.527Z,9.30
2022-11-23T17:53:08.172Z,12.03
2022-11-23T17:55:35.805Z,4.73
2022-11-23T17:58:03.524Z,3.23
2022-11-23T18:00:32.901Z,2.73
2022-11-23T18:03:00.679Z,3.20
2022-11-23T18:05:29.844Z,2.93
2022-11-23T18:07:57.600Z,5.97
2022-11-23T18:10:25.365Z,5.83
2022-11-23T18:12:53.048Z,5.70
2022-11-23T18:15:20.724Z,4.03
2022-11-23T18:17:50.067Z,1.77
2022-11-23T18:20:18.049Z,3.20
2022-11-23T18:22:45.664Z,4.47
2022-11-23T18:25:13.249Z,3.50
2022-11-23T18:27:40.939Z,3.63
2022-11-23T18:30:09.450Z,5.10
2022-11-23T18:32:37.228Z,9.43
2022-11-23T18:35:07.866Z,15.87
2022-11-23T18:37:35.666Z,14.87
2022-11-23T18:40:03.514Z,11.77
2022-11-23T18:42:31.165Z,17.00
2022-11-23T18:44:58.835Z,11.93
2022-11-23T18:47:26.581Z,11.60
2022-11-23T18:49:54.468Z,13.80
2022-11-23T18:52:23.803Z,9.40
2022-11-23T18:54:52.004Z,5.17
2022-11-23T18:57:19.639Z,8.80
2022-11-23T18:59:57.855Z,7.97
2022-11-23T19:02:26.416Z,5.97
2022-11-23T19:04:53.936Z,6.57
2022-11-23T19:07:26.839Z,3.77
2022-11-23T19:09:55.212Z,5.27
2022-11-23T19:12:22.972Z,3.80
2022-11-23T19:14:50.660Z,6.67
2022-11-23T19:17:18.423Z,11.80
2022-11-23T19:19:46.072Z,7.23
2022-11-23T19:22:13.596Z,4.70
2022-11-23T19:24:42.614Z,5.37
2022-11-23T19:27:10.181Z,6.37
2022-11-23T19:29:38.253Z,3.53
2022-11-23T19:32:06.703Z,4.20
2022-11-23T19:34:34.967Z,2.70
2022-11-23T19:37:02.634Z,2.37
2022-11-23T19:39:30.491Z,3.60
2022-11-23T19:41:59.773Z,5.37
2022-11-23T19:44:27.438Z,4.43
2022-11-23T19:46:55.253Z,3.03
2022-11-23T19:49:22.906Z,5.43
2022-11-23T19:51:52.545Z,5.37
2022-11-23T19:54:20.165Z,4.50
2022-11-23T19:56:47.910Z,5.57
2022-11-23T19:59:16.935Z,6.20
2022-11-23T20:01:44.690Z,3.63
2022-11-23T20:04:12.797Z,4.90
2022-11-23T20:06:42.357Z,5.13
2022-11-23T20:09:11.652Z,6.67
2022-11-23T20:11:40.743Z,3.93
2022-11-23T20:14:09.002Z,3.27
2022-11-23T20:16:38.059Z,5.90
2022-11-23T20:19:07.574Z,4.00
2022-11-23T20:21:35.478Z,3.03
2022-11-23T20:24:05.896Z,5.63
2022-11-23T20:26:33.957Z,7.57
2022-11-23T20:29:01.649Z,7.67
2022-11-23T20:31:30.717Z,5.07
2022-11-23T20:33:59.908Z,7.67
2022-11-23T20:36:29.758Z,4.93
2022-11-23T20:38:57.677Z,6.83
2022-11-23T20:41:27.216Z,4.80
2022-11-23T20:43:56.260Z,6.07
2022-11-23T20:46:46.078Z,5.07
2022-11-23T20:49:13.334Z,8.30
2022-11-23T20:51:40.951Z,5.33
2022-11-23T20:54:09.398Z,8.07
2022-11-23T20:56:39.014Z,5.10
2022-11-23T20:59:06.623Z,5.57
2022-11-23T21:01:35.989Z,5.60
2022-11-23T21:04:03.908Z,4.47
2022-11-23T21:06:38.419Z,4.80
2022-11-23T21:09:06.828Z,4.03
2022-11-23T21:11:52.136Z,6.33
2022-11-23T21:14:21.602Z,7.33
2022-11-23T21:16:53.223Z,4.80
2022-11-23T21:19:22.017Z,5.83
2022-11-23T21:21:51.458Z,5.40
2022-11-23T21:24:19.716Z,4.63
2022-11-23T21:26:47.596Z,4.40
2022-11-23T21:29:16.634Z,3.57
2022-11-23T21:31:45.882Z,3.90
2022-11-23T21:34:18.232Z,5.37
2022-11-23T21:36:45.807Z,4.87
2022-11-23T21:39:15.262Z,4.27
2022-11-23T21:41:43.828Z,6.53
2022-11-23T21:44:12.171Z,5.53
2022-11-23T21:46:41.086Z,5.17
2022-11-23T21:49:09.265Z,9.73
2022-11-23T21:51:38.584Z,5.57
2022-11-23T21:54:07.533Z,9.83
2022-11-23T21:56:36.621Z,7.27
2022-11-23T21:59:04.323Z,11.00
2022-11-23T22:01:33.700Z,7.43
2022-11-23T22:04:02.735Z,4.30
2022-11-23T22:06:30.792Z,6.03
2022-11-23T22:08:59.779Z,9.23
2022-11-23T22:11:28.743Z,5.63
2022-11-23T22:13:59.660Z,6.17
2022-11-23T22:16:28.562Z,9.00
2022-11-23T22:18:56.816Z,5.50
2022-11-23T22:21:25.768Z,9.73
2022-11-23T22:23:53.612Z,8.17
2022-11-23T22:26:22.419Z,7.30
2022-11-23T22:28:51.749Z,11.20
2022-11-23T22:31:23.176Z,8.33
2022-11-23T22:33:52.083Z,9.40
2022-11-23T22:36:21.527Z,8.77
2022-11-23T22:38:49.694Z,13.67
2022-11-23T22:41:18.599Z,12.53
2022-11-23T22:43:47.468Z,13.03
2022-11-23T22:46:17.587Z,11.13
2022-11-23T22:48:48.963Z,6.17
2022-11-23T22:51:18.669Z,14.13
2022-11-23T22:53:46.545Z,10.97
2022-11-23T22:56:16.302Z,13.87
2022-11-23T22:58:44.610Z,11.90
2022-11-23T23:01:13.962Z,14.10
2022-11-23T23:03:42.014Z,10.67
2022-11-23T23:06:16.656Z,14.33
2022-11-23T23:08:45.479Z,12.77
2022-11-23T23:11:14.128Z,9.00
2022-11-23T23:13:42.185Z,13.37
2022-11-23T23:16:12.677Z,10.53
2022-11-23T23:18:40.728Z,13.10
2022-11-23T23:21:10.890Z,9.90
2022-11-23T23:23:54.495Z,15.63
2022-11-23T23:26:30.955Z,14.53
2022-11-23T23:29:04.154Z,12.83
2022-11-23T23:31:42.793Z,8.17
2022-11-23T23:34:16.147Z,11.17
2022-11-23T23:37:00.351Z,12.00
2022-11-23T23:39:50.027Z,11.87
2022-11-23T23:42:23.674Z,10.63
2022-11-23T23:44:53.344Z,6.40
2022-11-23T23:47:28.154Z,11.57
2022-11-23T23:50:01.808Z,22.37
2022-11-23T23:52:33.990Z,11.53
2022-11-23T23:55:07.326Z,17.53
2022-11-23T23:57:42.442Z,10.83
